Time;durP1;ratioP1;P1;durP2;ratioP2;P2;SDS_P1;SDS_P2;PMS_P1;PMS_P2;Temp;Humidity;BMP_temperature;BMP_pressure;BME280_temperature;BME280_humidity;BME280_pressure;Samples;Min_cycle;Max_cycle;Signal;HPM_P1;HPM_P2
2021/11/04 00:01:45;;;;;;;39.42;8.77;;;6.80;99.90;;;;;;5038591;28;20479;-61
2021/11/04 00:04:10;;;;;;;30.73;8.70;;;6.80;99.90;;;;;;5039342;28;20033;-62
2021/11/04 00:06:36;;;;;;;44.13;8.68;;;6.80;99.90;;;;;;5038742;28;20127;-64
2021/11/04 00:09:02;;;;;;;36.55;8.13;;;6.80;99.90;;;;;;5038015;28;20038;-62
2021/11/04 00:11:27;;;;;;;54.10;9.05;;;6.80;99.90;;;;;;5040117;28;20037;-61
2021/11/04 00:13:53;;;;;;;55.63;10.60;;;6.80;99.90;;;;;;5037632;28;20033;-61
2021/11/04 00:16:19;;;;;;;54.90;8.32;;;6.80;99.90;;;;;;5039773;28;20116;-62
2021/11/04 00:18:45;;;;;;;57.33;8.35;;;6.70;99.90;;;;;;5019986;28;20112;-59
2021/11/04 00:21:11;;;;;;;44.38;8.43;;;6.70;99.90;;;;;;5039425;28;20025;-62
2021/11/04 00:23:36;;;;;;;43.92;8.05;;;6.70;99.90;;;;;;5035890;28;20038;-62
2021/11/04 00:26:03;;;;;;;53.95;7.72;;;6.70;99.90;;;;;;5039931;28;20404;-63
2021/11/04 00:28:28;;;;;;;45.58;7.28;;;6.70;99.90;;;;;;5036043;28;20504;-62
2021/11/04 00:30:54;;;;;;;59.00;8.23;;;6.70;99.90;;;;;;5040663;28;20025;-63
2021/11/04 00:33:20;;;;;;;63.15;9.23;;;6.70;99.90;;;;;;5039681;28;20057;-64
2021/11/04 00:35:45;;;;;;;21.75;6.53;;;6.70;99.90;;;;;;5037645;28;20034;-63
2021/11/04 00:38:11;;;;;;;44.22;7.38;;;6.70;99.90;;;;;;5021335;28;20072;-62
2021/11/04 00:40:37;;;;;;;51.45;8.70;;;6.70;99.90;;;;;;5039145;28;20038;-62
2021/11/04 00:43:02;;;;;;;34.42;7.78;;;6.70;99.90;;;;;;5039262;28;20041;-62
2021/11/04 00:45:28;;;;;;;51.30;8.57;;;6.70;99.90;;;;;;5036782;28;20030;-62
2021/11/04 00:47:54;;;;;;;35.78;6.57;;;6.70;99.90;;;;;;5021882;28;20032;-61
2021/11/04 00:50:24;;;;;;;47.85;8.00;;;6.70;99.90;;;;;;5040022;28;20152;-62
2021/11/04 00:52:49;;;;;;;41.10;7.63;;;6.70;99.90;;;;;;5040302;28;20044;-63
2021/11/04 00:55:15;;;;;;;26.67;7.03;;;6.70;99.90;;;;;;5037034;28;20037;-62
2021/11/04 00:57:41;;;;;;;37.95;6.57;;;6.70;99.90;;;;;;5038018;28;20038;-62
2021/11/04 01:00:12;;;;;;;31.42;6.38;;;6.70;99.90;;;;;;5038104;28;20049;-62
2021/11/04 01:02:39;;;;;;;27.58;6.28;;;6.60;99.90;;;;;;5038062;28;20441;-61
2021/11/04 01:05:05;;;;;;;27.77;5.63;;;6.70;99.90;;;;;;5038322;28;20040;-61
2021/11/04 01:07:30;;;;;;;79.78;8.50;;;6.60;99.90;;;;;;5039360;28;20044;-62
2021/11/04 01:09:56;;;;;;;32.28;5.97;;;6.60;99.90;;;;;;5036749;28;20129;-62
2021/11/04 01:12:21;;;;;;;32.20;6.32;;;6.60;99.90;;;;;;5038959;28;20114;-63
2021/11/04 01:14:47;;;;;;;36.83;6.38;;;6.60;99.90;;;;;;5035451;28;20025;-62
2021/11/04 01:17:13;;;;;;;47.40;7.85;;;6.50;99.90;;;;;;5036473;28;20037;-63
2021/11/04 01:19:39;;;;;;;35.03;5.95;;;6.50;99.90;;;;;;5037147;28;20033;-62
2021/11/04 01:22:04;;;;;;;35.78;5.85;;;6.50;99.90;;;;;;5039241;28;20083;-64
2021/11/04 01:24:30;;;;;;;44.63;7.25;;;6.50;99.90;;;;;;5023657;28;20049;-64
2021/11/04 01:26:56;;;;;;;29.02;6.43;;;6.40;99.90;;;;;;5036769;28;20025;-64
2021/11/04 01:29:21;;;;;;;26.17;5.15;;;6.40;99.90;;;;;;5035125;28;20033;-63
2021/11/04 01:31:47;;;;;;;57.25;7.85;;;6.40;99.90;;;;;;5044340;28;20088;-62
2021/11/04 01:34:13;;;;;;;61.13;7.70;;;6.30;99.90;;;;;;5035950;28;20037;-65
2021/11/04 01:36:38;;;;;;;73.07;7.30;;;6.30;99.90;;;;;;5035408;28;20029;-61
2021/11/04 01:39:04;;;;;;;41.88;6.82;;;6.30;99.90;;;;;;5037051;28;20311;-62
2021/11/04 01:41:30;;;;;;;37.35;6.10;;;6.20;99.90;;;;;;5036631;28;20060;-63
2021/11/04 01:43:56;;;;;;;36.90;6.32;;;6.20;99.90;;;;;;5036258;28;20053;-63
2021/11/04 01:46:22;;;;;;;34.95;6.00;;;6.20;99.90;;;;;;5020130;28;20329;-63
2021/11/04 01:48:48;;;;;;;43.28;6.00;;;6.10;99.90;;;;;;5038598;28;20512;-61
2021/11/04 01:51:14;;;;;;;15.77;5.25;;;6.00;99.90;;;;;;5035240;28;20068;-63
2021/11/04 01:53:40;;;;;;;63.47;7.63;;;6.00;99.90;;;;;;5037660;28;20115;-62
2021/11/04 01:56:06;;;;;;;38.83;6.13;;;6.00;99.90;;;;;;5037142;28;20120;-60
2021/11/04 01:58:32;;;;;;;29.50;5.63;;;6.00;99.90;;;;;;5035676;28;20493;-61
2021/11/04 02:00:58;;;;;;;48.45;6.00;;;6.00;99.90;;;;;;5019554;28;20040;-61
2021/11/04 02:03:42;;;;;;;47.78;6.25;;;6.00;99.90;;;;;;5034152;28;20029;-61
2021/11/04 02:06:27;;;;;;;49.17;5.88;;;6.00;99.90;;;;;;5036126;28;20041;-62
2021/11/04 02:09:10;;;;;;;31.15;5.30;;;6.00;99.90;;;;;;5038215;28;20045;-63
2021/11/04 02:11:47;;;;;;;28.45;5.25;;;5.90;99.90;;;;;;5019047;28;20067;-61
2021/11/04 02:14:29;;;;;;;30.27;5.72;;;5.90;99.90;;;;;;5034747;28;20033;-66
2021/11/04 02:16:56;;;;;;;27.20;5.72;;;5.90;99.90;;;;;;5039234;28;20170;-63
2021/11/04 02:19:47;;;;;;;40.78;5.47;;;5.90;99.90;;;;;;5033924;28;20405;-64
2021/11/04 02:22:37;;;;;;;28.20;5.57;;;5.90;99.90;;;;;;5037694;28;20034;-62
2021/11/04 02:25:20;;;;;;;23.38;5.10;;;5.90;99.90;;;;;;5038416;28;20036;-63
2021/11/04 02:27:54;;;;;;;52.25;5.80;;;5.90;99.90;;;;;;5037909;28;20033;-62
2021/11/04 02:30:22;;;;;;;40.88;5.35;;;5.80;99.90;;;;;;5039737;28;20035;-63
2021/11/04 02:32:50;;;;;;;28.38;4.63;;;5.80;99.90;;;;;;5034926;28;20049;-63
2021/11/04 02:35:16;;;;;;;35.88;4.88;;;5.70;99.90;;;;;;5024701;28;20388;-64
2021/11/04 02:37:43;;;;;;;35.83;4.90;;;5.70;99.90;;;;;;5038835;28;20083;-62
2021/11/04 02:40:10;;;;;;;25.17;3.88;;;5.70;99.90;;;;;;5027571;28;20048;-62
2021/11/04 02:42:38;;;;;;;34.15;4.32;;;5.60;99.90;;;;;;5037633;28;20029;-63
2021/11/04 02:45:04;;;;;;;19.63;3.20;;;5.70;99.90;;;;;;5035996;28;20098;-61
2021/11/04 02:47:30;;;;;;;32.90;2.80;;;5.60;99.90;;;;;;5035402;28;20030;-62
2021/11/04 02:49:56;;;;;;;28.27;3.28;;;5.60;99.90;;;;;;5034223;28;20037;-62
2021/11/04 02:52:23;;;;;;;38.42;3.75;;;5.50;99.90;;;;;;5018459;28;20040;-61
2021/11/04 02:54:59;;;;;;;28.63;3.15;;;5.40;99.90;;;;;;5020608;28;20158;-62
2021/11/04 02:57:25;;;;;;;25.50;3.97;;;5.40;99.90;;;;;;5017051;28;20446;-62
2021/11/04 02:59:51;;;;;;;38.95;3.55;;;5.30;99.90;;;;;;5037072;28;20041;-61
2021/11/04 03:02:17;;;;;;;35.53;4.05;;;5.30;99.90;;;;;;5034173;28;20059;-63
2021/11/04 03:04:43;;;;;;;28.05;3.42;;;5.20;99.90;;;;;;5038307;28;20089;-63
2021/11/04 03:07:08;;;;;;;34.70;4.90;;;5.20;99.90;;;;;;5035034;28;20117;-62
2021/11/04 03:09:34;;;;;;;24.33;3.50;;;5.10;99.90;;;;;;5035830;28;20381;-63
2021/11/04 03:12:00;;;;;;;6.03;3.10;;;5.10;99.90;;;;;;5036250;28;20132;-62
2021/11/04 03:14:26;;;;;;;18.98;4.03;;;5.00;99.90;;;;;;5035102;28;20128;-64
2021/11/04 03:16:55;;;;;;;5.90;3.35;;;5.00;99.90;;;;;;5036845;28;20116;-63
2021/11/04 03:19:22;;;;;;;16.15;3.47;;;5.00;99.90;;;;;;5034069;28;20211;-62
2021/11/04 03:21:51;;;;;;;22.98;3.58;;;4.90;99.90;;;;;;5037369;28;20033;-61
2021/11/04 03:24:19;;;;;;;19.63;3.97;;;4.90;99.90;;;;;;5040452;28;20033;-62
2021/11/04 03:26:48;;;;;;;15.02;3.47;;;4.80;99.90;;;;;;5033854;28;20112;-63
2021/11/04 03:29:15;;;;;;;22.97;4.20;;;4.80;99.90;;;;;;5037616;28;20061;-63
2021/11/04 03:31:44;;;;;;;9.35;3.72;;;4.70;99.90;;;;;;5036757;28;20493;-62
2021/11/04 03:34:10;;;;;;;15.63;3.97;;;4.70;99.90;;;;;;5049028;28;20132;-61
2021/11/04 03:36:37;;;;;;;4.85;3.30;;;4.60;99.90;;;;;;5018332;28;20037;-62
2021/11/04 03:39:04;;;;;;;7.60;3.85;;;4.60;99.90;;;;;;5016660;28;20584;-64
2021/11/04 03:41:31;;;;;;;10.18;3.50;;;4.60;99.90;;;;;;5035154;28;20025;-61
2021/11/04 03:43:57;;;;;;;11.95;3.33;;;4.70;99.90;;;;;;5017952;28;20594;-62
2021/11/04 03:46:25;;;;;;;5.60;3.25;;;4.60;99.90;;;;;;5034126;28;20056;-64
2021/11/04 03:48:52;;;;;;;14.30;3.50;;;4.50;99.90;;;;;;5035489;28;20113;-62
2021/11/04 03:51:20;;;;;;;18.63;4.63;;;4.60;99.90;;;;;;5020342;28;20037;-70
2021/11/04 03:53:46;;;;;;;7.40;2.65;;;4.50;99.90;;;;;;5038191;28;20712;-63
2021/11/04 03:56:12;;;;;;;8.40;2.78;;;4.50;99.90;;;;;;5033737;28;20033;-63
2021/11/04 03:58:40;;;;;;;3.83;2.60;;;4.50;99.90;;;;;;5036287;28;20025;-61
2021/11/04 04:01:06;;;;;;;5.38;2.90;;;4.40;99.90;;;;;;5034157;28;20064;-62
2021/11/04 04:03:32;;;;;;;7.97;2.72;;;4.40;99.90;;;;;;5036967;28;20030;-61
2021/11/04 04:06:02;;;;;;;3.35;2.63;;;4.40;99.90;;;;;;5038498;28;20091;-62
2021/11/04 04:08:29;;;;;;;5.28;3.28;;;4.30;99.90;;;;;;5036250;28;20120;-63
2021/11/04 04:10:55;;;;;;;6.18;3.10;;;4.30;99.90;;;;;;5039154;28;20048;-61
2021/11/04 04:13:21;;;;;;;7.35;3.00;;;4.30;99.90;;;;;;5038533;28;20124;-61
2021/11/04 04:15:47;;;;;;;4.68;3.05;;;4.30;99.90;;;;;;5038156;28;20485;-64
2021/11/04 04:18:12;;;;;;;4.82;3.00;;;4.20;99.90;;;;;;5022178;28;20103;-61
2021/11/04 04:20:38;;;;;;;4.15;2.75;;;4.20;99.90;;;;;;5018876;28;20044;-64
2021/11/04 04:23:03;;;;;;;5.50;3.33;;;4.10;99.90;;;;;;5039117;28;20448;-62
2021/11/04 04:25:30;;;;;;;6.10;3.08;;;4.00;99.90;;;;;;5038475;28;20036;-63
2021/11/04 04:27:57;;;;;;;5.30;3.08;;;4.00;99.90;;;;;;5038653;28;20456;-62
2021/11/04 04:30:23;;;;;;;4.75;2.90;;;4.00;99.90;;;;;;5037414;28;20103;-64
2021/11/04 04:32:48;;;;;;;5.18;3.25;;;4.00;99.90;;;;;;5039182;28;20068;-63
2021/11/04 04:35:15;;;;;;;6.07;3.50;;;4.00;99.90;;;;;;5037125;28;20060;-63
2021/11/04 04:37:40;;;;;;;11.05;3.45;;;4.00;99.90;;;;;;5039931;28;20030;-62
2021/11/04 04:40:07;;;;;;;10.05;3.85;;;4.00;99.90;;;;;;5040489;28;20038;-62
2021/11/04 04:42:33;;;;;;;13.65;3.63;;;3.90;99.90;;;;;;5038784;28;20056;-62
2021/11/04 04:44:58;;;;;;;19.40;4.65;;;3.80;99.90;;;;;;5037781;28;20083;-62
2021/11/04 04:47:24;;;;;;;9.38;3.70;;;3.90;99.90;;;;;;5037533;28;20042;-62
2021/11/04 04:49:50;;;;;;;14.32;3.85;;;3.80;99.90;;;;;;5037252;28;20672;-61
2021/11/04 04:52:16;;;;;;;11.32;4.00;;;3.80;99.90;;;;;;5038771;28;20044;-63
2021/11/04 04:54:41;;;;;;;8.73;4.03;;;3.70;99.90;;;;;;5018779;28;20560;-65
2021/11/04 04:57:07;;;;;;;12.25;4.38;;;3.80;99.90;;;;;;5036900;28;20374;-61
2021/11/04 04:59:33;;;;;;;14.38;3.92;;;3.90;99.90;;;;;;5039175;28;20710;-62
2021/11/04 05:01:59;;;;;;;10.20;3.70;;;4.00;99.90;;;;;;5037357;28;20064;-61
2021/11/04 05:04:25;;;;;;;9.65;3.53;;;4.00;99.90;;;;;;5038045;28;20041;-62
2021/11/04 05:06:50;;;;;;;14.30;4.03;;;4.00;99.90;;;;;;5038367;28;20036;-61
2021/11/04 05:09:16;;;;;;;11.50;3.90;;;4.00;99.90;;;;;;5036713;28;20033;-63
2021/11/04 05:11:41;;;;;;;8.73;3.80;;;4.00;99.90;;;;;;5038941;28;20576;-61
2021/11/04 05:14:07;;;;;;;6.60;3.53;;;3.90;99.90;;;;;;5036266;28;20091;-64
2021/11/04 05:16:32;;;;;;;7.55;3.60;;;4.00;99.90;;;;;;5017548;28;20036;-62
2021/11/04 05:18:58;;;;;;;5.75;3.38;;;4.00;99.90;;;;;;5038805;28;20545;-62
2021/11/04 05:21:24;;;;;;;6.07;3.47;;;4.10;99.90;;;;;;5018612;28;20108;-63
2021/11/04 05:23:49;;;;;;;8.02;3.30;;;4.10;99.90;;;;;;5038669;28;20032;-64
2021/11/04 05:26:15;;;;;;;5.65;3.63;;;4.20;99.90;;;;;;5040057;28;20037;-62
2021/11/04 05:28:41;;;;;;;7.07;3.47;;;4.20;99.90;;;;;;5035781;28;20036;-64
2021/11/04 05:31:07;;;;;;;6.68;3.22;;;4.20;99.90;;;;;;5040921;28;20060;-61
2021/11/04 05:33:32;;;;;;;6.88;3.45;;;4.20;99.90;;;;;;5035282;28;20088;-61
2021/11/04 05:35:58;;;;;;;5.80;3.38;;;4.20;99.90;;;;;;5021437;28;20033;-62
2021/11/04 05:38:23;;;;;;;6.13;3.58;;;4.20;99.90;;;;;;5035899;28;20116;-63
2021/11/04 05:40:49;;;;;;;5.97;3.65;;;4.20;99.90;;;;;;5020004;28;20041;-63
2021/11/04 05:43:15;;;;;;;6.03;3.53;;;4.30;99.90;;;;;;5036801;28;20018;-62
2021/11/04 05:45:40;;;;;;;8.40;4.13;;;4.40;99.90;;;;;;5035480;28;20028;-61
2021/11/04 05:48:06;;;;;;;8.57;3.90;;;4.40;99.90;;;;;;5035269;28;20091;-62
2021/11/04 05:50:31;;;;;;;6.03;3.40;;;4.50;99.90;;;;;;5036312;28;20022;-62
2021/11/04 05:53:00;;;;;;;6.72;3.22;;;4.60;99.90;;;;;;5038685;28;20045;-62
2021/11/04 05:55:25;;;;;;;5.20;2.90;;;4.50;99.90;;;;;;5035537;28;20044;-61
2021/11/04 05:57:51;;;;;;;5.18;3.50;;;4.50;99.90;;;;;;5035982;28;20397;-60
2021/11/04 06:00:17;;;;;;;5.70;3.55;;;4.60;99.90;;;;;;5036346;28;20067;-60
2021/11/04 06:02:42;;;;;;;5.60;3.45;;;4.60;99.90;;;;;;5020491;28;20033;-63
2021/11/04 06:05:08;;;;;;;5.85;3.65;;;4.70;99.90;;;;;;5035086;28;20049;-61
2021/11/04 06:07:34;;;;;;;5.43;3.63;;;4.70;99.90;;;;;;5029363;28;20413;-61
2021/11/04 06:10:00;;;;;;;7.47;3.28;;;4.70;99.90;;;;;;5035799;28;20033;-61
2021/11/04 06:12:25;;;;;;;6.93;4.18;;;4.70;99.90;;;;;;5028208;28;20041;-60
2021/11/04 06:14:51;;;;;;;4.65;3.42;;;4.80;99.90;;;;;;5035358;28;20037;-62
2021/11/04 06:17:16;;;;;;;6.20;3.40;;;4.80;99.90;;;;;;5032561;28;20045;-61
2021/11/04 06:19:42;;;;;;;7.70;4.05;;;4.80;99.90;;;;;;5028101;28;20490;-63
2021/11/04 06:22:07;;;;;;;6.90;4.30;;;4.90;99.90;;;;;;5034548;28;20033;-62
2021/11/04 06:24:33;;;;;;;7.70;4.55;;;4.90;99.90;;;;;;5035489;28;20552;-63
2021/11/04 06:26:59;;;;;;;8.35;5.13;;;5.00;99.90;;;;;;5031591;28;20041;-63
2021/11/04 06:29:24;;;;;;;6.70;4.45;;;4.90;99.90;;;;;;5033522;28;20033;-61
2021/11/04 06:31:50;;;;;;;7.18;4.32;;;5.00;99.90;;;;;;5040442;28;20485;-62
2021/11/04 06:34:16;;;;;;;7.20;4.22;;;5.10;99.90;;;;;;5038324;28;20041;-61
2021/11/04 06:36:41;;;;;;;5.65;3.58;;;5.10;99.90;;;;;;5032688;28;20480;-61
2021/11/04 06:39:07;;;;;;;6.13;3.78;;;5.10;99.90;;;;;;5038905;28;20041;-63
2021/11/04 06:41:33;;;;;;;7.25;4.20;;;5.10;99.90;;;;;;5032304;28;20037;-61
2021/11/04 06:43:58;;;;;;;5.32;3.20;;;5.10;99.90;;;;;;5035757;28;20029;-62
2021/11/04 06:46:26;;;;;;;9.23;3.90;;;5.20;99.90;;;;;;5049874;28;20801;-62
2021/11/04 06:49:05;;;;;;;7.50;3.70;;;5.20;99.90;;;;;;5035158;28;20119;-62
2021/11/04 06:51:33;;;;;;;6.93;4.13;;;5.10;99.90;;;;;;5029906;28;20531;-63
2021/11/04 06:54:02;;;;;;;7.10;4.25;;;5.10;99.90;;;;;;5034036;28;20041;-63
2021/11/04 06:56:40;;;;;;;6.32;4.25;;;5.10;99.90;;;;;;5034429;28;20060;-63
2021/11/04 06:59:22;;;;;;;4.88;3.50;;;5.10;99.90;;;;;;5035668;28;20036;-60
2021/11/04 07:01:53;;;;;;;5.63;3.05;;;5.10;99.90;;;;;;5039210;28;20034;-62
2021/11/04 07:04:28;;;;;;;4.97;3.47;;;5.10;99.90;;;;;;5021525;28;20047;-65
2021/11/04 07:07:02;;;;;;;5.20;3.33;;;5.20;99.90;;;;;;5038361;28;20029;-63
2021/11/04 07:09:32;;;;;;;6.70;3.60;;;5.20;99.90;;;;;;5033652;28;20087;-62
2021/11/04 07:12:00;;;;;;;9.50;4.10;;;5.10;99.90;;;;;;5023296;28;20460;-61
2021/11/04 07:14:27;;;;;;;7.57;3.88;;;5.10;99.90;;;;;;5034326;28;20032;-62
2021/11/04 07:16:54;;;;;;;5.90;4.05;;;5.10;99.90;;;;;;5022598;28;20039;-64
2021/11/04 07:19:20;;;;;;;7.68;5.07;;;5.20;99.90;;;;;;5031767;28;20433;-61
2021/11/04 07:22:02;;;;;;;5.72;3.67;;;5.20;99.90;;;;;;5032090;28;20028;-62
2021/11/04 07:24:44;;;;;;;7.18;4.07;;;5.20;99.90;;;;;;5031380;28;20112;-62
2021/11/04 07:27:33;;;;;;;7.03;4.53;;;5.20;99.90;;;;;;5042337;28;20049;-62
2021/11/04 07:30:04;;;;;;;5.82;3.45;;;5.20;99.90;;;;;;5031111;28;20037;-63
2021/11/04 07:32:31;;;;;;;7.80;4.13;;;5.30;99.90;;;;;;5028259;28;20436;-61
2021/11/04 07:34:58;;;;;;;7.07;4.18;;;5.30;99.90;;;;;;5033807;28;20121;-62
2021/11/04 07:37:30;;;;;;;10.77;4.03;;;5.30;99.90;;;;;;5022511;28;20044;-62
2021/11/04 07:39:56;;;;;;;8.55;3.88;;;5.30;99.90;;;;;;5023405;28;20037;-60
2021/11/04 07:42:22;;;;;;;7.18;4.43;;;5.40;99.90;;;;;;5036136;28;20037;-63
2021/11/04 07:44:47;;;;;;;8.70;4.25;;;5.30;99.90;;;;;;5043314;28;20116;-63
2021/11/04 07:47:13;;;;;;;11.10;4.13;;;5.40;99.90;;;;;;5032208;28;20044;-65
2021/11/04 07:49:39;;;;;;;6.15;3.60;;;5.50;99.90;;;;;;5036589;28;20132;-64
2021/11/04 07:52:06;;;;;;;7.97;4.13;;;5.50;99.90;;;;;;5024098;28;20483;-62
2021/11/04 07:54:32;;;;;;;6.78;4.10;;;5.50;99.90;;;;;;5034459;28;20105;-61
2021/11/04 07:56:58;;;;;;;8.13;4.30;;;5.60;99.90;;;;;;5038297;28;20044;-63
2021/11/04 07:59:26;;;;;;;6.82;3.95;;;5.70;99.90;;;;;;5034781;28;20047;-62
2021/11/04 08:01:52;;;;;;;5.15;3.40;;;5.80;99.90;;;;;;5026830;28;20040;-62
2021/11/04 08:04:18;;;;;;;10.00;4.18;;;5.90;99.90;;;;;;5034457;28;20060;-62
2021/11/04 08:06:43;;;;;;;6.63;4.30;;;6.00;99.90;;;;;;5038676;28;20041;-62
2021/11/04 08:09:09;;;;;;;7.60;3.70;;;6.10;99.90;;;;;;5041045;28;20677;-63
2021/11/04 08:11:35;;;;;;;9.30;4.75;;;6.10;99.90;;;;;;5020782;28;20046;-61
2021/11/04 08:14:00;;;;;;;5.53;3.17;;;6.20;99.90;;;;;;5039631;28;20098;-63
2021/11/04 08:16:26;;;;;;;5.43;3.40;;;6.30;99.90;;;;;;5038082;28;20544;-62
2021/11/04 08:18:51;;;;;;;5.93;2.92;;;6.40;99.90;;;;;;5034929;28;20036;-63
2021/11/04 08:21:17;;;;;;;3.92;3.03;;;6.40;99.90;;;;;;5026450;28;20124;-63
2021/11/04 08:23:43;;;;;;;5.38;3.33;;;6.40;99.90;;;;;;5042727;28;20036;-61
2021/11/04 08:26:08;;;;;;;9.73;3.63;;;6.40;99.90;;;;;;5027489;28;20041;-62
2021/11/04 08:28:34;;;;;;;6.18;2.97;;;6.40;99.90;;;;;;5038975;28;20454;-63
2021/11/04 08:30:59;;;;;;;5.90;2.90;;;6.40;99.90;;;;;;5042500;28;20037;-63
2021/11/04 08:33:25;;;;;;;4.90;3.25;;;6.40;99.90;;;;;;5041249;28;20033;-62
2021/11/04 08:35:50;;;;;;;4.82;2.80;;;6.40;99.90;;;;;;5038664;28;20512;-62
2021/11/04 08:38:16;;;;;;;7.00;3.17;;;6.50;99.90;;;;;;5034137;28;20037;-65
2021/11/04 08:40:43;;;;;;;6.53;3.45;;;6.60;99.90;;;;;;5021916;28;20029;-62
2021/11/04 08:43:08;;;;;;;5.10;3.13;;;6.70;99.90;;;;;;5031650;28;20128;-62
2021/11/04 08:45:36;;;;;;;5.45;3.25;;;6.80;99.90;;;;;;5032190;28;20248;-63
2021/11/04 08:48:02;;;;;;;5.47;3.10;;;6.80;99.90;;;;;;5037268;28;20050;-63
2021/11/04 08:50:28;;;;;;;5.07;3.08;;;6.90;99.90;;;;;;5020224;28;20443;-62
2021/11/04 08:52:55;;;;;;;5.55;2.78;;;6.90;99.90;;;;;;5022230;28;20470;-63
2021/11/04 08:55:21;;;;;;;6.72;2.80;;;7.00;99.90;;;;;;5036726;28;20540;-63
2021/11/04 08:57:47;;;;;;;5.65;2.70;;;7.10;99.90;;;;;;5037027;28;20121;-64
2021/11/04 09:00:13;;;;;;;5.22;3.00;;;7.10;99.90;;;;;;5038218;28;20041;-62
2021/11/04 09:02:39;;;;;;;7.13;3.17;;;7.10;99.90;;;;;;5035003;28;20121;-61
2021/11/04 09:05:09;;;;;;;6.03;2.95;;;7.10;99.90;;;;;;5047021;28;20080;-61
2021/11/04 09:07:39;;;;;;;5.82;2.97;;;7.20;99.90;;;;;;5036718;28;21982;-61
2021/11/04 09:10:07;;;;;;;5.35;2.75;;;7.30;99.90;;;;;;5028733;28;20085;-62
2021/11/04 09:12:34;;;;;;;7.18;3.22;;;7.30;99.90;;;;;;5036673;28;20161;-61
2021/11/04 09:15:00;;;;;;;7.38;3.38;;;7.40;99.90;;;;;;5040288;28;20044;-61
2021/11/04 09:17:26;;;;;;;6.10;2.80;;;7.40;99.90;;;;;;5036148;28;20060;-61
2021/11/04 09:19:51;;;;;;;5.05;2.97;;;7.50;99.90;;;;;;5030319;28;20071;-62
2021/11/04 09:22:20;;;;;;;5.97;2.70;;;7.50;99.90;;;;;;5039639;28;20962;-61
2021/11/04 09:24:46;;;;;;;7.10;3.60;;;7.60;99.90;;;;;;5041064;28;20508;-61
2021/11/04 09:27:11;;;;;;;4.80;3.30;;;7.70;99.90;;;;;;5042583;28;20036;-61
2021/11/04 09:29:38;;;;;;;4.40;2.83;;;7.80;99.90;;;;;;5028660;28;20037;-62
2021/11/04 09:32:06;;;;;;;3.72;2.33;;;7.80;99.90;;;;;;5038285;28;20056;-62
2021/11/04 09:34:35;;;;;;;6.53;3.72;;;7.90;99.90;;;;;;5041814;28;20040;-61
2021/11/04 09:37:05;;;;;;;4.88;2.65;;;7.90;99.90;;;;;;5033804;28;20037;-62
2021/11/04 09:39:33;;;;;;;3.35;1.75;;;8.00;99.90;;;;;;5031189;28;20029;-61
2021/11/04 09:41:59;;;;;;;4.13;2.72;;;8.10;99.90;;;;;;5033447;28;20047;-61
2021/11/04 09:44:25;;;;;;;4.93;2.40;;;8.20;99.90;;;;;;5029916;28;20037;-61
2021/11/04 09:46:50;;;;;;;3.70;2.22;;;8.30;99.90;;;;;;5022363;28;20037;-62
2021/11/04 09:49:16;;;;;;;8.95;3.25;;;8.40;99.90;;;;;;5034110;28;20039;-61
2021/11/04 09:51:42;;;;;;;7.30;2.22;;;8.60;99.90;;;;;;5035692;28;20037;-61
2021/11/04 09:54:08;;;;;;;5.68;2.92;;;8.70;99.90;;;;;;5025287;28;20033;-62
2021/11/04 09:56:35;;;;;;;4.35;2.28;;;8.70;99.90;;;;;;5030876;28;20044;-62
2021/11/04 09:59:01;;;;;;;5.75;1.95;;;8.80;99.90;;;;;;5038624;28;20037;-62
2021/11/04 10:01:28;;;;;;;6.75;2.45;;;8.90;99.90;;;;;;5034486;28;20088;-63
2021/11/04 10:04:00;;;;;;;3.90;2.20;;;8.90;99.90;;;;;;5026465;28;20090;-61
2021/11/04 10:06:28;;;;;;;8.20;1.88;;;9.00;99.90;;;;;;5034536;28;20041;-61
2021/11/04 10:08:58;;;;;;;2.85;1.75;;;9.00;99.90;;;;;;5036103;28;20068;-64
2021/11/04 10:11:28;;;;;;;4.00;1.90;;;9.10;99.90;;;;;;5039924;28;20666;-63
2021/11/04 10:14:00;;;;;;;6.63;2.00;;;9.20;99.90;;;;;;5030474;28;20622;-61
2021/11/04 10:16:27;;;;;;;3.15;2.03;;;9.20;99.90;;;;;;5035476;28;20056;-62
2021/11/04 10:18:53;;;;;;;2.85;1.58;;;9.20;99.90;;;;;;5036828;28;20116;-63
2021/11/04 10:21:26;;;;;;;2.67;2.00;;;9.30;99.90;;;;;;5022236;28;20120;-61
2021/11/04 10:23:52;;;;;;;8.90;2.58;;;9.40;99.90;;;;;;5031251;28;20597;-61
2021/11/04 10:26:21;;;;;;;5.03;1.77;;;9.40;99.90;;;;;;5020843;28;20377;-62
2021/11/04 10:28:49;;;;;;;3.33;1.80;;;9.60;99.90;;;;;;5031575;28;20035;-63
2021/11/04 10:31:17;;;;;;;2.75;1.60;;;9.60;99.90;;;;;;5040069;28;20091;-63
2021/11/04 10:33:48;;;;;;;4.60;1.52;;;9.80;99.90;;;;;;5037635;28;20029;-62
2021/11/04 10:36:16;;;;;;;2.65;1.65;;;9.80;99.90;;;;;;5037216;28;20033;-62
2021/11/04 10:38:44;;;;;;;4.78;1.40;;;9.80;99.90;;;;;;5030308;28;20595;-61
2021/11/04 10:41:28;;;;;;;4.05;1.30;;;9.90;99.90;;;;;;5031584;28;20041;-63
2021/11/04 10:44:01;;;;;;;8.98;2.05;;;10.00;99.90;;;;;;5029727;28;20065;-63
2021/11/04 10:46:30;;;;;;;10.80;2.03;;;10.00;99.90;;;;;;5028894;28;20396;-61
2021/11/04 10:48:57;;;;;;;2.80;1.60;;;10.00;99.90;;;;;;5027892;28;20033;-62
2021/11/04 10:51:22;;;;;;;3.75;1.55;;;10.10;99.90;;;;;;5015395;28;20033;-63
2021/11/04 10:54:00;;;;;;;5.00;1.83;;;10.00;99.90;;;;;;5017771;28;20345;-62
2021/11/04 10:56:27;;;;;;;3.63;1.60;;;10.10;99.90;;;;;;5030697;28;20036;-61
2021/11/04 10:59:09;;;;;;;6.57;1.70;;;10.10;99.90;;;;;;5043267;28;20600;-61
2021/11/04 11:01:47;;;;;;;3.40;2.05;;;10.10;99.90;;;;;;5017469;28;20087;-61
2021/11/04 11:04:18;;;;;;;5.38;2.05;;;10.10;99.90;;;;;;5029943;28;20036;-61
2021/11/04 11:06:47;;;;;;;3.78;2.03;;;10.10;99.90;;;;;;5028940;28;20095;-61
2021/11/04 11:09:18;;;;;;;3.88;1.88;;;9.90;99.90;;;;;;5035513;28;20585;-62
2021/11/04 11:11:52;;;;;;;5.07;1.85;;;9.90;99.90;;;;;;5030336;28;20058;-61
2021/11/04 11:14:19;;;;;;;6.43;1.90;;;9.80;99.90;;;;;;5036971;28;20029;-63
2021/11/04 11:16:53;;;;;;;4.43;2.03;;;9.80;99.90;;;;;;5035178;28;20500;-63
2021/11/04 11:19:23;;;;;;;4.20;1.83;;;9.70;99.90;;;;;;5036995;28;20028;-63
2021/11/04 11:21:51;;;;;;;;;;;9.70;99.90;;;;;;5036449;28;20748;-62
2021/11/04 11:24:21;;;;;;;4.00;1.90;;;9.70;99.90;;;;;;5018671;28;20440;-62
2021/11/04 11:26:47;;;;;;;5.28;2.03;;;9.70;99.90;;;;;;5033465;28;20037;-61
2021/11/04 11:29:13;;;;;;;3.53;2.20;;;9.70;99.90;;;;;;5037945;28;20551;-63
2021/11/04 11:31:51;;;;;;;3.58;2.00;;;9.80;99.90;;;;;;5032149;28;20353;-63
2021/11/04 11:34:23;;;;;;;5.95;2.20;;;9.80;99.90;;;;;;5032563;28;20029;-61
2021/11/04 11:37:11;;;;;;;4.82;2.65;;;9.80;99.90;;;;;;5031672;28;20437;-62
2021/11/04 11:39:39;;;;;;;6.88;2.63;;;9.80;99.90;;;;;;5033354;28;20447;-62
2021/11/04 11:42:07;;;;;;;7.30;2.75;;;9.90;99.90;;;;;;5030383;28;20033;-62
2021/11/04 11:44:40;;;;;;;4.60;2.08;;;9.90;99.90;;;;;;5026665;28;20124;-61
2021/11/04 11:47:15;;;;;;;5.22;2.80;;;10.00;99.90;;;;;;5025161;28;20885;-61
2021/11/04 11:49:41;;;;;;;8.35;2.90;;;10.00;99.90;;;;;;5019759;28;20048;-61
2021/11/04 11:52:26;;;;;;;3.95;2.03;;;10.20;99.90;;;;;;5026338;28;20041;-61
2021/11/04 11:54:58;;;;;;;6.30;2.10;;;10.30;99.90;;;;;;5030450;28;20036;-62
2021/11/04 11:57:25;;;;;;;7.47;2.35;;;10.30;99.90;;;;;;5034536;28;20040;-63
2021/11/04 11:59:53;;;;;;;4.18;2.35;;;10.30;99.90;;;;;;5039133;28;20476;-60
2021/11/04 12:02:37;;;;;;;4.03;1.88;;;10.30;99.90;;;;;;5035610;28;20036;-62
2021/11/04 12:05:31;;;;;;;4.07;2.00;;;10.40;99.90;;;;;;5032942;28;20065;-60
2021/11/04 12:08:09;;;;;;;3.45;1.70;;;10.50;99.90;;;;;;5034964;28;20404;-62
2021/11/04 12:10:39;;;;;;;3.50;1.45;;;10.50;99.90;;;;;;5024355;28;20061;-63
2021/11/04 12:13:05;;;;;;;7.15;2.00;;;10.60;99.90;;;;;;5039853;28;20562;-62
2021/11/04 12:15:31;;;;;;;5.05;1.30;;;10.50;99.90;;;;;;5034729;28;20030;-62
2021/11/04 12:18:14;;;;;;;4.07;1.30;;;10.40;99.90;;;;;;5032859;28;20045;-62
2021/11/04 12:20:54;;;;;;;3.85;0.93;;;10.30;99.90;;;;;;5036682;28;20040;-62
2021/11/04 12:23:20;;;;;;;4.90;0.95;;;10.20;99.90;;;;;;5034115;28;20053;-61
2021/11/04 12:25:47;;;;;;;2.05;0.82;;;10.10;99.90;;;;;;5034606;28;20451;-61
2021/11/04 12:28:14;;;;;;;1.15;0.57;;;10.10;99.90;;;;;;5037378;28;20029;-61
2021/11/04 12:30:39;;;;;;;2.70;0.80;;;10.10;99.90;;;;;;5039594;28;20086;-61
2021/11/04 12:33:10;;;;;;;1.08;0.65;;;10.00;99.90;;;;;;5036300;28;20041;-61
2021/11/04 12:35:51;;;;;;;1.38;0.63;;;10.00;99.90;;;;;;5037066;28;20041;-61
2021/11/04 12:38:21;;;;;;;2.25;0.95;;;10.00;99.90;;;;;;5041755;28;20556;-61
2021/11/04 12:41:02;;;;;;;0.88;0.80;;;10.00;99.90;;;;;;5039607;28;20041;-62
2021/11/04 12:43:32;;;;;;;2.63;0.98;;;10.00;99.90;;;;;;5035879;28;20037;-62
2021/11/04 12:46:11;;;;;;;1.67;1.00;;;10.00;99.90;;;;;;5040727;28;20065;-62
2021/11/04 12:48:50;;;;;;;5.80;1.52;;;10.10;99.90;;;;;;5034806;28;20480;-62
2021/11/04 12:51:27;;;;;;;2.17;0.88;;;10.20;99.90;;;;;;5024793;28;20053;-64
2021/11/04 12:53:56;;;;;;;3.35;1.15;;;10.20;99.90;;;;;;5027347;28;20454;-62
2021/11/04 12:56:42;;;;;;;1.80;0.90;;;10.30;99.90;;;;;;5034205;28;20662;-61
2021/11/04 12:59:13;;;;;;;1.77;1.10;;;10.40;99.90;;;;;;5031767;28;20057;-61